Observations for Trim Market St
| Time | AQI | Temp °C | Hum % | Pres Pa | CO μg/m³ | H₂S μg/m³ | NO μg/m³ | NO₂ μg/m³ | O₃ μg/m³ | SO₂ μg/m³ | PM1 μg/m³ | PM2.5 μg/m³ | PM10 μg/m³ |
|---|---|---|---|---|---|---|---|---|---|---|---|---|---|
| Monday 24 August 2026 | |||||||||||||
| 07:45 | 1 | 10.2 | 79 | 13,438 | 0.73 | 0 | 7.84 | 17.81 | 17.78 | 0 | 4.28 | 5.45 | 10.39 |
| 07:44 | 1 | 10.1 | 79 | 14,082 | 0.75 | 0 | 8.72 | 18.37 | 15.94 | 0 | 4.28 | 6.39 | 9.82 |
| 07:43 | 1 | 10.1 | 79 | 14,456 | 0.83 | 0 | 14.65 | 23.92 | 11.2 | 0 | 3.56 | 4.97 | 10.39 |
| 07:42 | 1 | 10 | 79 | 14,805 | 0.71 | 0 | 11.87 | 18.42 | 14.21 | 0 | 3.56 | 4.97 | 9.24 |
| 07:41 | 1 | 10 | 79 | 15,031 | 0.73 | 0 | 10.76 | 19.22 | 14.33 | 0 | 3.56 | 4.5 | 8.1 |
| 07:40 | 1 | 9.9 | 80 | 15,294 | 0.75 | 0 | 8.94 | 20.48 | 12.6 | 0 | 4.28 | 5.44 | 8.67 |
| 07:39 | 1 | 9.9 | 80 | 15,720 | 0.78 | 0 | 7.88 | 23.62 | 10.44 | 0 | 4.28 | 6.39 | 9.81 |
| 07:38 | 1 | 9.8 | 80 | 16,046 | 0.71 | 0 | 5.15 | 17.33 | 15.7 | 0 | 3.56 | 4.97 | 9.24 |
| 07:37 | 1 | 9.8 | 80 | 16,366 | 0.71 | 0 | 6.93 | 18.8 | 13.84 | 0 | 3.56 | 4.5 | 8.67 |
| 07:36 | 1 | 9.7 | 80 | 16,634 | 0.72 | 0 | 8.2 | 21.87 | 10.01 | 0 | 4.28 | 5.91 | 9.81 |
| 07:35 | 1 | 9.7 | 80 | 16,887 | 0.73 | 0 | 10.18 | 25.43 | 7.73 | 0 | 4.99 | 7.33 | 10.95 |
| 07:34 | 1 | 9.6 | 80 | 16,983 | 0.75 | 0 | 9.43 | 19.19 | 11.3 | 0 | 4.28 | 6.38 | 10.38 |
| 07:33 | 1 | 9.6 | 80 | 17,049 | 0.82 | 0 | 10.03 | 25.49 | 7.26 | 0 | 4.28 | 6.38 | 9.81 |
| 07:31 | 1 | 9.5 | 80 | 17,183 | 0.69 | 0 | 7.6 | 16.43 | 14.44 | 0 | 4.28 | 5.43 | 9.81 |
| 07:29 | 1 | 9.4 | 80 | 17,569 | 0.71 | 0 | 5.7 | 16.09 | 13.9 | 0 | 4.28 | 6.37 | 9.81 |
| 07:28 | 1 | 9.3 | 80 | 17,768 | 0.71 | 0 | 6.21 | 15.82 | 14.35 | 0 | 3.56 | 4.49 | 9.81 |
| 07:27 | 1 | 9.3 | 80 | 18,001 | 0.7 | 0 | 6.01 | 15.83 | 14.31 | 0 | 3.56 | 5.42 | 10.37 |
| 07:26 | 1 | 9.3 | 80 | 18,228 | 0.7 | 0 | 6.2 | 15.42 | 13.92 | 0 | 4.99 | 5.9 | 11.51 |
| 07:25 | 1 | 9.2 | 80 | 18,512 | 0.7 | 0 | 8.44 | 16.08 | 13.37 | 0 | 2.85 | 5.42 | 8.67 |
| 07:24 | 1 | 9.2 | 80 | 18,802 | 0.71 | 0 | 8.93 | 17.57 | 11.03 | 0 | 3.56 | 5.9 | 9.24 |